Time;durP1;ratioP1;P1;durP2;ratioP2;P2;SDS_P1;SDS_P2;PMS_P1;PMS_P2;Temp;Humidity;BMP_temperature;BMP_pressure;BME280_temperature;BME280_humidity;BME280_pressure;Samples;Min_cycle;Max_cycle;Signal;HPM_P1;HPM_P2
2024/01/14 00:02:08;;;;;;;0.70;0.70;;;;;;;-146.42;100.00;61981.06;4973517;28;20201;-65
2024/01/14 00:04:34;;;;;;;1.17;1.17;;;;;;;-146.42;100.00;61981.06;4973806;28;20177;-65
2024/01/14 00:06:59;;;;;;;1.23;1.23;;;;;;;-146.42;100.00;61981.06;4977534;28;20182;-65
2024/01/14 00:09:25;;;;;;;1.33;1.33;;;;;;;-146.42;100.00;61981.06;4973527;28;20776;-65
2024/01/14 00:11:50;;;;;;;1.40;1.40;;;;;;;-146.42;100.00;61981.06;4973433;28;20170;-65
2024/01/14 00:14:16;;;;;;;0.70;0.70;;;;;;;-146.42;100.00;61981.06;4973260;28;20624;-65
2024/01/14 00:16:41;;;;;;;1.00;1.00;;;;;;;-146.42;100.00;61981.06;4973428;28;20189;-65
2024/01/14 00:19:07;;;;;;;1.37;1.33;;;;;;;-146.42;100.00;61981.06;4973260;28;20209;-65
2024/01/14 00:21:33;;;;;;;0.80;0.80;;;;;;;-146.42;100.00;61981.06;4973028;28;20209;-65
2024/01/14 00:23:58;;;;;;;0.90;0.90;;;;;;;-146.42;100.00;61981.06;4973166;28;20552;-65
2024/01/14 00:26:27;;;;;;;5.10;3.73;;;;;;;-146.42;100.00;61981.06;4973046;28;20208;-65
2024/01/14 00:28:53;;;;;;;0.83;0.83;;;;;;;-146.42;100.00;61981.06;4973067;28;20178;-65
2024/01/14 00:31:19;;;;;;;0.83;0.83;;;;;;;-146.42;100.00;61981.06;4972937;28;20173;-65
2024/01/14 00:33:44;;;;;;;1.97;1.90;;;;;;;-146.42;100.00;61981.06;4973094;28;20787;-65
2024/01/14 00:36:10;;;;;;;0.80;0.80;;;;;;;-146.42;100.00;61981.06;4973021;28;20178;-65
2024/01/14 00:38:36;;;;;;;0.73;0.73;;;;;;;-146.42;100.00;61981.06;4972950;28;20186;-65
2024/01/14 00:41:02;;;;;;;39.50;11.83;;;;;;;-146.42;100.00;61981.06;4972697;28;20209;-65
2024/01/14 00:43:28;;;;;;;5.47;4.63;;;;;;;-146.42;100.00;61981.06;4972880;28;20250;-65
2024/01/14 00:45:53;;;;;;;1.33;1.33;;;;;;;-146.42;100.00;61981.06;4972803;28;20182;-65
2024/01/14 00:48:19;;;;;;;1.00;1.00;;;;;;;-146.42;100.00;61981.06;4973027;28;20189;-65
2024/01/14 00:50:44;;;;;;;10.37;5.10;;;;;;;-146.42;100.00;61981.06;4955495;28;20185;-65
2024/01/14 00:53:10;;;;;;;0.80;0.80;;;;;;;-146.42;100.00;61981.06;4972570;28;20174;-65
2024/01/14 00:55:37;;;;;;;0.80;0.80;;;;;;;-146.42;100.00;61981.06;4972550;28;20255;-65
2024/01/14 00:58:03;;;;;;;48.90;45.07;;;;;;;-146.42;100.00;61981.06;4975178;28;20228;-65
2024/01/14 01:00:29;;;;;;;2.40;2.23;;;;;;;-146.42;100.00;61981.06;4972463;28;20648;-65
2024/01/14 01:02:54;;;;;;;0.70;0.70;;;;;;;-146.42;100.00;61981.06;4972550;28;20217;-65
2024/01/14 01:05:20;;;;;;;4.80;1.17;;;;;;;-146.42;100.00;61981.06;4972376;28;20181;-65
2024/01/14 01:07:45;;;;;;;1.37;1.37;;;;;;;-146.42;100.00;61981.06;4972606;28;20641;-65
2024/01/14 01:10:12;;;;;;;1.07;1.07;;;;;;;-146.42;100.00;61981.06;4972277;28;20180;-65
2024/01/14 01:12:38;;;;;;;7.30;3.73;;;;;;;-146.42;100.00;61981.06;4955014;28;20585;-65
2024/01/14 01:15:05;;;;;;;11.77;11.03;;;;;;;-146.42;100.00;61981.06;4972316;28;20177;-65
2024/01/14 01:17:31;;;;;;;0.77;0.77;;;;;;;-146.42;100.00;61981.06;4954855;28;20181;-65
2024/01/14 01:19:57;;;;;;;1.10;1.10;;;;;;;-146.42;100.00;61981.06;4972343;28;20225;-65
2024/01/14 01:22:23;;;;;;;0.90;0.90;;;;;;;-146.42;100.00;61981.06;4972292;28;20774;-65
2024/01/14 01:24:48;;;;;;;20.83;8.63;;;;;;;-146.42;100.00;61981.06;4954606;28;20237;-65
2024/01/14 01:27:14;;;;;;;5.77;5.43;;;;;;;-146.42;100.00;61981.06;4972324;28;20606;-64
2024/01/14 01:29:39;;;;;;;1.87;1.80;;;;;;;-146.42;100.00;61981.06;4972270;28;20173;-65
2024/01/14 01:32:05;;;;;;;0.80;0.80;;;;;;;-146.42;100.00;61981.06;4972152;28;20169;-65
2024/01/14 01:34:30;;;;;;;1.17;1.17;;;;;;;-146.42;100.00;61981.06;4972447;28;20182;-65
2024/01/14 01:36:56;;;;;;;1.27;1.27;;;;;;;-146.42;100.00;61981.06;4972363;28;20852;-65
2024/01/14 01:39:21;;;;;;;1.23;1.20;;;;;;;-146.42;100.00;61981.06;4972125;28;20231;-66
2024/01/14 01:41:47;;;;;;;1.23;1.23;;;;;;;-146.42;100.00;61981.06;4972047;28;20221;-65
2024/01/14 01:44:13;;;;;;;2.90;2.70;;;;;;;-146.42;100.00;61981.06;4971905;28;20184;-65
2024/01/14 01:46:39;;;;;;;1.10;1.10;;;;;;;-146.42;100.00;61981.06;4971961;28;20173;-65
2024/01/14 01:49:04;;;;;;;1.23;1.23;;;;;;;-146.42;100.00;61981.06;4960262;28;20182;-65
2024/01/14 01:51:30;;;;;;;1.40;1.40;;;;;;;-146.42;100.00;61981.06;4952508;29;20321;-65
2024/01/14 01:53:57;;;;;;;0.80;0.80;;;;;;;-146.42;100.00;61981.06;4952574;29;20221;-65
2024/01/14 01:56:25;;;;;;;2.23;2.13;;;;;;;-146.42;100.00;61981.06;4952644;29;20170;-65
2024/01/14 01:58:52;;;;;;;1.10;1.10;;;;;;;-146.42;100.00;61981.06;4952532;29;20170;-65
2024/01/14 02:01:21;;;;;;;0.70;0.70;;;;;;;-146.42;100.00;61981.06;4952655;29;20198;-65
2024/01/14 02:03:48;;;;;;;1.37;1.33;;;;;;;-146.42;100.00;61981.06;4952528;29;20249;-65
2024/01/14 02:06:15;;;;;;;1.13;1.13;;;;;;;-146.42;100.00;61981.06;4952614;29;20249;-67
2024/01/14 02:08:41;;;;;;;0.70;0.70;;;;;;;-146.42;100.00;61981.06;4952510;29;20174;-65
2024/01/14 02:11:06;;;;;;;0.80;0.80;;;;;;;-146.42;100.00;61981.06;4952609;29;20700;-65
2024/01/14 02:13:32;;;;;;;2.23;2.13;;;;;;;-146.42;100.00;61981.06;4953554;28;20175;-65
2024/01/14 02:15:57;;;;;;;0.80;0.80;;;;;;;-146.42;100.00;61981.06;4956388;29;20179;-65
2024/01/14 02:18:22;;;;;;;1.53;1.53;;;;;;;-146.42;100.00;61981.06;4956446;29;20253;-65
2024/01/14 02:20:48;;;;;;;0.70;0.70;;;;;;;-146.42;100.00;61981.06;4956278;29;20174;-65
2024/01/14 02:23:19;;;;;;;1.60;1.60;;;;;;;-146.42;100.00;61981.06;4956311;29;20652;-65
2024/01/14 02:25:45;;;;;;;0.80;0.80;;;;;;;-146.42;100.00;61981.06;4956135;29;20232;-65
2024/01/14 02:28:10;;;;;;;1.00;1.00;;;;;;;-146.42;100.00;61981.06;4956249;28;20253;-65
2024/01/14 02:30:36;;;;;;;0.80;0.80;;;;;;;-146.42;100.00;61981.06;4956089;28;20642;-65
2024/01/14 02:33:01;;;;;;;1.83;1.83;;;;;;;-146.42;100.00;61981.06;4956160;28;20653;-65
2024/01/14 02:35:27;;;;;;;0.80;0.80;;;;;;;-146.42;100.00;61981.06;4956011;28;20178;-65
2024/01/14 02:37:54;;;;;;;2.33;2.23;;;;;;;-146.42;100.00;61981.06;4956035;28;20233;-65
2024/01/14 02:40:20;;;;;;;2.23;2.17;;;;;;;-146.42;100.00;61981.06;4955935;28;20183;-65
2024/01/14 02:42:46;;;;;;;4.63;4.43;;;;;;;-146.42;100.00;61981.06;4954885;29;20714;-65
2024/01/14 02:45:11;;;;;;;1.57;1.57;;;;;;;-146.42;100.00;61981.06;4956108;28;20245;-65
2024/01/14 02:47:37;;;;;;;1.07;1.07;;;;;;;-146.42;100.00;61981.06;4955827;28;20222;-65
2024/01/14 02:50:02;;;;;;;0.80;0.80;;;;;;;-146.42;100.00;61981.06;4955875;28;20621;-65
2024/01/14 02:52:28;;;;;;;0.80;0.80;;;;;;;-146.42;100.00;61981.06;4955794;28;20226;-65
2024/01/14 02:54:53;;;;;;;0.80;0.80;;;;;;;-146.42;100.00;61981.06;4954555;29;20598;-65
2024/01/14 02:57:19;;;;;;;0.80;0.80;;;;;;;-146.42;100.00;61981.06;4955633;28;20251;-65
2024/01/14 02:59:44;;;;;;;1.00;1.00;;;;;;;-146.42;100.00;61981.06;4955665;28;20178;-65
2024/01/14 03:02:10;;;;;;;2.53;2.40;;;;;;;-146.42;100.00;61981.06;4955484;28;20209;-65
2024/01/14 03:04:35;;;;;;;1.17;1.17;;;;;;;-146.42;100.00;61981.06;4955627;28;20574;-65
2024/01/14 03:07:00;;;;;;;0.80;0.80;;;;;;;-146.42;100.00;61981.06;4955569;28;20198;-65
2024/01/14 03:09:26;;;;;;;0.80;0.80;;;;;;;-146.42;100.00;61981.06;4955351;28;20171;-65
2024/01/14 03:11:51;;;;;;;0.90;0.90;;;;;;;-146.42;100.00;61981.06;4955378;28;20162;-65
2024/01/14 03:14:17;;;;;;;10.30;9.73;;;;;;;-146.42;100.00;61981.06;4955308;28;20170;-65
2024/01/14 03:16:43;;;;;;;0.80;0.80;;;;;;;-146.42;100.00;61981.06;4955447;28;20234;-65
2024/01/14 03:19:09;;;;;;;0.80;0.80;;;;;;;-146.42;100.00;61981.06;4955505;28;20185;-65
2024/01/14 03:21:34;;;;;;;1.37;1.37;;;;;;;-146.42;100.00;61981.06;4955055;28;20194;-65
2024/01/14 03:24:00;;;;;;;0.80;0.80;;;;;;;-146.42;100.00;61981.06;4956893;28;20647;-65
2024/01/14 03:26:25;;;;;;;102.20;16.37;;;;;;;-146.42;100.00;61981.06;4973210;28;20205;-65
2024/01/14 03:28:51;;;;;;;1.00;1.00;;;;;;;-146.42;100.00;61981.06;4974332;28;20178;-65
2024/01/14 03:31:17;;;;;;;0.90;0.90;;;;;;;-146.42;100.00;61981.06;4974334;28;20224;-65
2024/01/14 03:33:43;;;;;;;0.80;0.80;;;;;;;-146.42;100.00;61981.06;4974299;28;20169;-65
2024/01/14 03:36:15;;;;;;;0.90;0.90;;;;;;;-146.42;100.00;61981.06;4974151;28;20174;-65
2024/01/14 03:38:41;;;;;;;0.80;0.80;;;;;;;-146.42;100.00;61981.06;4974297;28;20165;-65
2024/01/14 03:41:06;;;;;;;0.73;0.73;;;;;;;-146.42;100.00;61981.06;4974160;28;20593;-65
2024/01/14 03:43:32;;;;;;;3.27;3.07;;;;;;;-146.42;100.00;61981.06;4974250;28;20181;-65
2024/01/14 03:45:58;;;;;;;1.50;1.47;;;;;;;-146.42;100.00;61981.06;4974040;28;20169;-65
2024/01/14 03:48:23;;;;;;;2.03;2.03;;;;;;;-146.42;100.00;61981.06;4956785;28;20678;-65
2024/01/14 03:50:48;;;;;;;7.37;6.90;;;;;;;-146.42;100.00;61981.06;4974086;28;20580;-65
2024/01/14 03:53:15;;;;;;;0.90;0.90;;;;;;;-146.42;100.00;61981.06;4974016;28;20307;-65
2024/01/14 03:55:40;;;;;;;1.77;1.77;;;;;;;-146.42;100.00;61981.06;4973745;28;20178;-65
2024/01/14 03:58:06;;;;;;;1.00;1.00;;;;;;;-146.42;100.00;61981.06;4973830;28;20185;-65
2024/01/14 04:00:31;;;;;;;3.53;3.30;;;;;;;-146.42;100.00;61981.06;4973811;28;20644;-65
2024/01/14 04:02:57;;;;;;;1.03;1.03;;;;;;;-146.42;100.00;61981.06;4973737;28;20275;-65
2024/01/14 04:05:23;;;;;;;1.33;1.33;;;;;;;-146.42;100.00;61981.06;4973799;28;20174;-65
2024/01/14 04:07:49;;;;;;;43.53;30.07;;;;;;;-146.42;100.00;61981.06;4973906;28;20531;-65
2024/01/14 04:10:16;;;;;;;0.80;0.80;;;;;;;-146.42;100.00;61981.06;4974002;28;20208;-65
2024/01/14 04:12:42;;;;;;;8.50;3.67;;;;;;;-146.42;100.00;61981.06;4973811;28;20169;-65
2024/01/14 04:15:08;;;;;;;0.93;0.93;;;;;;;-146.42;100.00;61981.06;4973526;28;20253;-65
2024/01/14 04:17:33;;;;;;;3.93;3.80;;;;;;;-146.42;100.00;61981.06;4973443;28;20555;-65
2024/01/14 04:19:59;;;;;;;3.27;3.17;;;;;;;-146.42;100.00;61981.06;4973432;28;20178;-65
2024/01/14 04:22:25;;;;;;;0.80;0.80;;;;;;;-146.42;100.00;61981.06;4973400;28;20205;-65
2024/01/14 04:24:50;;;;;;;1.17;1.17;;;;;;;-146.42;100.00;61981.06;4973358;28;20382;-65
2024/01/14 04:27:16;;;;;;;0.90;0.90;;;;;;;-146.42;100.00;61981.06;4973398;28;20653;-65
2024/01/14 04:29:41;;;;;;;2.60;2.50;;;;;;;-146.42;100.00;61981.06;4973396;28;20178;-65
2024/01/14 04:32:07;;;;;;;0.80;0.80;;;;;;;-146.42;100.00;61981.06;4973459;28;20173;-65
2024/01/14 04:34:33;;;;;;;1.23;1.20;;;;;;;-146.42;100.00;61981.06;4973490;28;20177;-65
2024/01/14 04:36:58;;;;;;;1.57;1.47;;;;;;;-146.42;100.00;61981.06;4972830;28;20200;-65
2024/01/14 04:39:24;;;;;;;13.30;4.17;;;;;;;-146.42;100.00;61981.06;4972779;28;20181;-65
2024/01/14 04:41:49;;;;;;;4.90;4.63;;;;;;;-146.42;100.00;61981.06;4972893;28;20205;-65
2024/01/14 04:44:15;;;;;;;1.30;1.30;;;;;;;-146.42;100.00;61981.06;4972984;28;20258;-65
2024/01/14 04:46:43;;;;;;;3.37;2.20;;;;;;;-146.42;100.00;61981.06;4972947;28;20544;-67
2024/01/14 04:49:09;;;;;;;1.30;1.30;;;;;;;-146.42;100.00;61981.06;4972670;28;20181;-65
2024/01/14 04:51:35;;;;;;;0.90;0.90;;;;;;;-146.42;100.00;61981.06;4972793;28;20181;-65
2024/01/14 04:54:02;;;;;;;0.90;0.90;;;;;;;-146.42;100.00;61981.06;4973017;28;20839;-65
2024/01/14 04:56:28;;;;;;;1.67;1.60;;;;;;;-146.42;100.00;61981.06;4972946;28;20182;-65
2024/01/14 04:58:53;;;;;;;0.80;0.80;;;;;;;-146.42;100.00;61981.06;4972909;28;20239;-65
2024/01/14 05:01:19;;;;;;;1.77;1.77;;;;;;;-146.42;100.00;61981.06;4955116;28;20208;-65
2024/01/14 05:03:44;;;;;;;1.10;1.10;;;;;;;-146.42;100.00;61981.06;4972208;28;20177;-65
2024/01/14 05:06:10;;;;;;;1.00;1.00;;;;;;;-146.42;100.00;61981.06;4972366;28;20174;-65
2024/01/14 05:08:38;;;;;;;1.33;1.33;;;;;;;-146.42;100.00;61981.06;4972370;28;20181;-65
2024/01/14 05:11:04;;;;;;;8.90;3.57;;;;;;;-146.42;100.00;61981.06;4972327;28;20178;-64
2024/01/14 05:13:29;;;;;;;0.97;0.97;;;;;;;-146.42;100.00;61981.06;4972396;28;20181;-65
2024/01/14 05:15:55;;;;;;;1.17;1.17;;;;;;;-146.42;100.00;61981.06;4972246;28;20185;-65
2024/01/14 05:18:20;;;;;;;1.73;1.73;;;;;;;-146.42;100.00;61981.06;4971980;28;20182;-65
2024/01/14 05:20:46;;;;;;;1.90;1.80;;;;;;;-146.42;100.00;61981.06;4972146;28;20537;-65
2024/01/14 05:23:11;;;;;;;1.50;1.50;;;;;;;-146.42;100.00;61981.06;4972270;28;20174;-65
2024/01/14 05:25:37;;;;;;;1.50;1.50;;;;;;;-146.42;100.00;61981.06;4972249;28;20237;-65
2024/01/14 05:28:03;;;;;;;0.80;0.80;;;;;;;-146.42;100.00;61981.06;4972064;28;20185;-65
2024/01/14 05:30:28;;;;;;;0.80;0.80;;;;;;;-146.42;100.00;61981.06;4973595;28;20232;-65
2024/01/14 05:32:53;;;;;;;1.83;1.73;;;;;;;-146.42;100.00;61981.06;4972075;28;20535;-65
2024/01/14 05:35:19;;;;;;;3.10;3.00;;;;;;;-146.42;100.00;61981.06;4972079;28;20181;-65
2024/01/14 05:37:44;;;;;;;1.40;1.30;;;;;;;-146.42;100.00;61981.06;4972173;28;20281;-65
2024/01/14 05:40:10;;;;;;;1.57;1.50;;;;;;;-146.42;100.00;61981.06;4971977;28;20181;-65
2024/01/14 05:42:40;;;;;;;1.00;1.00;;;;;;;-146.42;100.00;61981.06;4971794;28;20208;-65
2024/01/14 05:45:06;;;;;;;2.83;2.73;;;;;;;-146.42;100.00;61981.06;4972071;28;20173;-65
2024/01/14 05:47:32;;;;;;;0.80;0.80;;;;;;;-146.42;100.00;61981.06;4971615;28;20178;-65
2024/01/14 05:49:58;;;;;;;0.77;0.77;;;;;;;-146.42;100.00;61981.06;4971585;28;20174;-65
2024/01/14 05:52:23;;;;;;;3.77;3.60;;;;;;;-146.42;100.00;61981.06;4971939;28;20182;-65
2024/01/14 05:54:49;;;;;;;0.90;0.90;;;;;;;-146.42;100.00;61981.06;4971835;28;20614;-65
2024/01/14 05:57:14;;;;;;;4.93;4.67;;;;;;;-146.42;100.00;61981.06;4971725;28;20712;-65
2024/01/14 05:59:40;;;;;;;0.70;0.70;;;;;;;-146.42;100.00;61981.06;4971887;28;20178;-65
2024/01/14 06:02:05;;;;;;;1.53;1.53;;;;;;;-146.42;100.00;61981.06;4971633;28;20201;-65
2024/01/14 06:04:31;;;;;;;10.87;6.73;;;;;;;-146.42;100.00;61981.06;4971678;28;20181;-65
2024/01/14 06:06:56;;;;;;;0.90;0.90;;;;;;;-146.42;100.00;61981.06;4971661;28;20178;-65
2024/01/14 06:09:22;;;;;;;0.80;0.80;;;;;;;-146.42;100.00;61981.06;4971727;28;20264;-65
2024/01/14 06:11:47;;;;;;;8.53;2.43;;;;;;;-146.42;100.00;61981.06;4971624;28;20170;-65
2024/01/14 06:14:13;;;;;;;0.90;0.90;;;;;;;-146.42;100.00;61981.06;4971639;28;20556;-65
2024/01/14 06:16:41;;;;;;;3.23;3.13;;;;;;;-146.42;100.00;61981.06;4971424;28;20191;-65
2024/01/14 06:19:06;;;;;;;4.50;2.53;;;;;;;-146.42;100.00;61981.06;4971567;28;20600;-65
2024/01/14 06:21:32;;;;;;;0.80;0.80;;;;;;;-146.42;100.00;61981.06;4971592;28;20212;-65
2024/01/14 06:23:57;;;;;;;5.03;4.83;;;;;;;-146.42;100.00;61981.06;4971573;28;20695;-64
2024/01/14 06:26:23;;;;;;;0.80;0.80;;;;;;;-146.42;100.00;61981.06;4954327;28;20181;-64
2024/01/14 06:28:48;;;;;;;0.90;0.90;;;;;;;-146.42;100.00;61981.06;4971524;28;20254;-65
2024/01/14 06:31:14;;;;;;;0.77;0.77;;;;;;;-146.42;100.00;61981.06;4971432;28;20174;-64
2024/01/14 06:33:40;;;;;;;1.00;1.00;;;;;;;-146.42;100.00;61981.06;4971339;28;20178;-64
2024/01/14 06:36:06;;;;;;;9.53;3.07;;;;;;;-146.42;100.00;61981.06;4971569;28;20170;-64
2024/01/14 06:38:34;;;;;;;1.10;1.10;;;;;;;-146.42;100.00;61981.06;4971572;28;20269;-64
2024/01/14 06:41:00;;;;;;;2.13;2.10;;;;;;;-146.42;100.00;61981.06;4971348;28;20177;-64
2024/01/14 06:43:25;;;;;;;4.33;3.93;;;;;;;-146.42;100.00;61981.06;4954023;28;20725;-64
2024/01/14 06:45:51;;;;;;;1.10;1.10;;;;;;;-146.42;100.00;61981.06;4971264;28;20188;-65
2024/01/14 06:48:17;;;;;;;11.73;2.70;;;;;;;-146.42;100.00;61981.06;4971389;28;20205;-65
2024/01/14 06:50:42;;;;;;;1.20;1.20;;;;;;;-146.42;100.00;61981.06;4954009;28;20189;-65
2024/01/14 06:53:08;;;;;;;2.17;2.03;;;;;;;-146.42;100.00;61981.06;4971177;28;20213;-64
2024/01/14 06:55:33;;;;;;;4.47;4.27;;;;;;;-146.42;100.00;61981.06;4971093;28;20716;-64
2024/01/14 06:57:59;;;;;;;1.10;1.10;;;;;;;-146.42;100.00;61981.06;4953866;28;20264;-65
2024/01/14 07:00:25;;;;;;;0.70;0.70;;;;;;;-146.42;100.00;61981.06;4973345;28;20632;-65
2024/01/14 07:02:50;;;;;;;18.67;4.50;;;;;;;-146.42;100.00;61981.06;4974104;28;20299;-65
2024/01/14 07:05:16;;;;;;;3.43;3.23;;;;;;;-146.42;100.00;61981.06;4974518;28;20260;-65
2024/01/14 07:07:44;;;;;;;0.70;0.70;;;;;;;-146.42;100.00;61981.06;4974544;28;20181;-65
2024/01/14 07:10:10;;;;;;;10.47;9.77;;;;;;;-146.42;100.00;61981.06;4974438;28;20337;-65
2024/01/14 07:12:35;;;;;;;8.53;8.10;;;;;;;-146.42;100.00;61981.06;4974657;28;21019;-64
2024/01/14 07:15:00;;;;;;;1.87;1.87;;;;;;;-146.42;100.00;61981.06;4974353;28;20551;-65
2024/01/14 07:17:26;;;;;;;2.97;2.77;;;;;;;-146.42;100.00;61981.06;4974443;28;20240;-65
2024/01/14 07:19:52;;;;;;;7.63;6.90;;;;;;;-146.42;100.00;61981.06;4974263;28;20174;-65
2024/01/14 07:22:17;;;;;;;5.33;4.83;;;;;;;-146.42;100.00;61981.06;4974094;28;20696;-65
2024/01/14 07:24:44;;;;;;;10.27;9.43;;;;;;;-146.42;100.00;61981.06;4972806;28;20293;-65
2024/01/14 07:27:09;;;;;;;4.23;4.03;;;;;;;-146.42;100.00;61981.06;4973650;28;20181;-65
2024/01/14 07:29:35;;;;;;;3.93;3.77;;;;;;;-146.42;100.00;61981.06;4973229;28;20232;-65
2024/01/14 07:32:00;;;;;;;7.93;6.10;;;;;;;-146.42;100.00;61981.06;4973144;28;20253;-65
2024/01/14 07:34:26;;;;;;;12.00;9.90;;;;;;;-146.42;100.00;61981.06;4973966;28;20263;-65
2024/01/14 07:36:51;;;;;;;5.87;5.40;;;;;;;-146.42;100.00;61981.06;4973137;28;20232;-65
2024/01/14 07:39:17;;;;;;;1.90;1.90;;;;;;;-146.42;100.00;61981.06;4973966;28;20182;-65
2024/01/14 07:41:42;;;;;;;2.03;1.93;;;;;;;-146.42;100.00;61981.06;4973096;28;20684;-65
2024/01/14 07:44:09;;;;;;;0.90;0.90;;;;;;;-146.42;100.00;61981.06;4972673;28;20268;-65
2024/01/14 07:46:34;;;;;;;5.17;2.60;;;;;;;-146.42;100.00;61981.06;4972758;28;20186;-66
2024/01/14 07:49:00;;;;;;;3.83;3.63;;;;;;;-146.42;100.00;61981.06;4973112;28;20237;-65
2024/01/14 07:51:26;;;;;;;4.40;4.00;;;;;;;-146.42;100.00;61981.06;4972905;28;20261;-65
2024/01/14 07:53:51;;;;;;;2.10;2.00;;;;;;;-146.42;100.00;61981.06;4973122;28;20178;-65
2024/01/14 07:56:19;;;;;;;1.37;1.37;;;;;;;-146.42;100.00;61981.06;4973653;28;20653;-66
2024/01/14 07:58:44;;;;;;;0.50;0.50;;;;;;;-146.42;100.00;61981.06;4973497;28;20217;-66
2024/01/14 08:01:10;;;;;;;0.70;0.70;;;;;;;-146.42;100.00;61981.06;4973486;28;20174;-65
2024/01/14 08:03:36;;;;;;;6.13;3.40;;;;;;;-146.42;100.00;61981.06;4973121;28;20566;-65
2024/01/14 08:06:02;;;;;;;0.70;0.70;;;;;;;-146.42;100.00;61981.06;4972386;28;20229;-65
2024/01/14 08:08:27;;;;;;;0.60;0.60;;;;;;;-146.42;100.00;61981.06;4972499;28;20185;-65
2024/01/14 08:10:53;;;;;;;2.70;2.60;;;;;;;-146.42;100.00;61981.06;4972040;28;20186;-65
2024/01/14 08:13:19;;;;;;;1.03;1.00;;;;;;;-146.42;100.00;61981.06;4972694;28;20788;-65
2024/01/14 08:15:44;;;;;;;2.27;2.17;;;;;;;-146.42;100.00;61981.06;4972092;28;20193;-65
2024/01/14 08:18:10;;;;;;;2.77;2.63;;;;;;;-146.42;100.00;61981.06;4972822;28;20679;-67
2024/01/14 08:20:35;;;;;;;1.63;1.63;;;;;;;-146.42;100.00;61981.06;4973247;28;20569;-66
2024/01/14 08:23:01;;;;;;;0.53;0.53;;;;;;;-146.42;100.00;61981.06;4973094;28;20213;-67
2024/01/14 08:25:27;;;;;;;13.83;8.43;;;;;;;-146.42;100.00;61981.06;4955627;28;20226;-67
2024/01/14 08:27:52;;;;;;;1.93;1.87;;;;;;;-146.42;100.00;61981.06;4972858;28;20188;-66
2024/01/14 08:30:18;;;;;;;1.43;1.43;;;;;;;-146.42;100.00;61981.06;4973218;28;20192;-67
2024/01/14 08:32:44;;;;;;;13.73;6.87;;;;;;;-146.42;100.00;61981.06;4973192;28;20269;-67
2024/01/14 08:35:13;;;;;;;1.97;1.93;;;;;;;-146.42;100.00;61981.06;4973006;28;20668;-67
2024/01/14 08:37:42;;;;;;;4.90;2.73;;;;;;;-146.42;100.00;61981.06;4973318;28;20177;-66
2024/01/14 08:40:08;;;;;;;1.23;1.23;;;;;;;-146.42;100.00;61981.06;4972904;28;20192;-66
2024/01/14 08:42:33;;;;;;;3.87;2.43;;;;;;;-146.42;100.00;61981.06;4973100;28;20233;-66
2024/01/14 08:44:59;;;;;;;1.27;1.27;;;;;;;-146.42;100.00;61981.06;4973144;28;20474;-66
2024/01/14 08:47:25;;;;;;;5.50;4.20;;;;;;;-146.42;100.00;61981.06;4972369;28;20261;-66
2024/01/14 08:49:51;;;;;;;1.57;1.57;;;;;;;-146.42;100.00;61981.06;4972354;28;20188;-66
2024/01/14 08:52:16;;;;;;;1.47;1.47;;;;;;;-146.42;100.00;61981.06;4972373;28;20182;-67
2024/01/14 08:54:42;;;;;;;2.77;1.77;;;;;;;-146.42;100.00;61981.06;4972206;28;20649;-67
2024/01/14 08:57:07;;;;;;;0.80;0.80;;;;;;;-146.42;100.00;61981.06;4972483;28;20237;-67
2024/01/14 08:59:33;;;;;;;7.83;6.10;;;;;;;-146.42;100.00;61981.06;4972278;28;20525;-67
2024/01/14 09:01:59;;;;;;;0.63;0.63;;;;;;;-146.42;100.00;61981.06;4972353;28;20198;-65
2024/01/14 09:04:24;;;;;;;3.23;1.57;;;;;;;-146.42;100.00;61981.06;4972356;28;20697;-65
2024/01/14 09:06:50;;;;;;;3.43;2.03;;;;;;;-146.42;100.00;61981.06;4972383;28;20184;-65
2024/01/14 09:09:15;;;;;;;2.37;1.87;;;;;;;-146.42;100.00;61981.06;4972391;28;20563;-65
2024/01/14 09:11:42;;;;;;;1.83;1.73;;;;;;;-146.42;100.00;61981.06;4972154;28;20248;-65
2024/01/14 09:14:07;;;;;;;1.00;1.00;;;;;;;-146.42;100.00;61981.06;4972269;28;20185;-65
2024/01/14 09:16:33;;;;;;;0.90;0.90;;;;;;;-146.42;100.00;61981.06;4972172;28;20185;-65
2024/01/14 09:18:58;;;;;;;1.73;1.73;;;;;;;-146.42;100.00;61981.06;4972290;28;20601;-65
2024/01/14 09:21:25;;;;;;;1.13;1.13;;;;;;;-146.42;100.00;61981.06;4972204;28;20206;-66
2024/01/14 09:23:50;;;;;;;1.67;1.57;;;;;;;-146.42;100.00;61981.06;4969566;28;20189;-66
2024/01/14 09:26:16;;;;;;;0.40;0.40;;;;;;;-146.42;100.00;61981.06;4973346;28;20262;-65
2024/01/14 09:28:41;;;;;;;2.00;1.23;;;;;;;-146.42;100.00;61981.06;4973532;28;20193;-65
2024/01/14 09:31:07;;;;;;;0.40;0.40;;;;;;;-146.42;100.00;61981.06;4971928;28;20260;-65
2024/01/14 09:33:32;;;;;;;2.37;2.30;;;;;;;-146.42;100.00;61981.06;4971684;28;20185;-66
2024/01/14 09:36:08;;;;;;;3.60;3.40;;;;;;;-146.42;100.00;61981.06;4971653;28;20576;-66
2024/01/14 09:38:34;;;;;;;3.77;3.20;;;;;;;-146.42;100.00;61981.06;4971718;28;20232;-66
2024/01/14 09:41:34;;;;;;;3.17;2.87;;;;;;;-146.42;100.00;61981.06;4970523;28;20617;-66
2024/01/14 09:44:01;;;;;;;3.87;3.67;;;;;;;-146.42;100.00;61981.06;4942330;28;20692;-64
2024/01/14 09:46:27;;;;;;;16.03;3.90;;;;;;;-146.42;100.00;61981.06;4971431;28;20201;-65
2024/01/14 09:48:55;;;;;;;1.70;1.37;;;;;;;-146.42;100.00;61981.06;4971275;28;20648;-66
2024/01/14 09:51:28;;;;;;;1.13;1.13;;;;;;;-146.42;100.00;61981.06;4971603;28;20173;-66
2024/01/14 09:53:55;;;;;;;5.17;2.03;;;;;;;-146.42;100.00;61981.06;4971425;28;20182;-66
2024/01/14 09:56:21;;;;;;;3.83;1.00;;;;;;;-146.42;100.00;61981.06;4953956;28;20177;-65
2024/01/14 09:58:47;;;;;;;0.70;0.70;;;;;;;-146.42;100.00;61981.06;4971330;28;20652;-65
2024/01/14 10:01:20;;;;;;;1.13;1.13;;;;;;;-146.42;100.00;61981.06;4970644;28;20213;-65
2024/01/14 10:03:46;;;;;;;8.40;4.00;;;;;;;-146.42;100.00;61981.06;4965865;28;20182;-65
2024/01/14 10:06:13;;;;;;;6.07;5.73;;;;;;;-146.42;100.00;61981.06;4971444;28;20243;-65
2024/01/14 10:08:38;;;;;;;2.50;2.40;;;;;;;-146.42;100.00;61981.06;4971283;28;20174;-65
2024/01/14 10:11:04;;;;;;;1.53;1.43;;;;;;;-146.42;100.00;61981.06;4971133;28;20186;-65
2024/01/14 10:13:34;;;;;;;4.57;4.27;;;;;;;-146.42;100.00;61981.06;4971445;28;20170;-65
2024/01/14 10:16:01;;;;;;;3.87;3.00;;;;;;;-146.42;100.00;61981.06;4971246;28;20228;-65
2024/01/14 10:18:26;;;;;;;6.03;1.03;;;;;;;-146.42;100.00;61981.06;4971303;28;20181;-65
2024/01/14 10:20:52;;;;;;;1.00;1.00;;;;;;;-146.42;100.00;61981.06;4973744;28;20174;-65
2024/01/14 10:23:20;;;;;;;5.47;4.60;;;;;;;-146.42;100.00;61981.06;4970953;28;20222;-65
2024/01/14 10:25:46;;;;;;;0.70;0.70;;;;;;;-146.42;100.00;61981.06;4971049;28;20232;-65
2024/01/14 10:28:12;;;;;;;0.90;0.90;;;;;;;-146.42;100.00;61981.06;4971280;28;20256;-65
2024/01/14 10:30:37;;;;;;;4.23;1.73;;;;;;;-146.42;100.00;61981.06;4971036;28;20182;-65
2024/01/14 10:33:03;;;;;;;0.77;0.77;;;;;;;-146.42;100.00;61981.06;4971284;28;20167;-65
2024/01/14 10:35:29;;;;;;;1.17;1.17;;;;;;;-146.42;100.00;61981.06;4973575;28;20240;-65
2024/01/14 10:37:55;;;;;;;1.40;1.30;;;;;;;-146.42;100.00;61981.06;4975169;28;20262;-65
2024/01/14 10:40:22;;;;;;;2.87;2.50;;;;;;;-146.42;100.00;61981.06;4974961;28;20207;-65
2024/01/14 10:42:48;;;;;;;0.50;0.50;;;;;;;-146.42;100.00;61981.06;4974799;28;20197;-65
2024/01/14 10:45:13;;;;;;;1.50;1.50;;;;;;;-146.42;100.00;61981.06;4974448;28;20185;-65
2024/01/14 10:47:46;;;;;;;0.90;0.90;;;;;;;-146.42;100.00;61981.06;4957560;28;20986;-65
2024/01/14 10:50:13;;;;;;;8.70;8.07;;;;;;;-146.42;100.00;61981.06;4974702;28;20193;-65
2024/01/14 10:52:46;;;;;;;2.03;1.93;;;;;;;-146.42;100.00;61981.06;4974547;28;20264;-65
2024/01/14 10:55:34;;;;;;;2.17;1.97;;;;;;;-146.42;100.00;61981.06;4974701;28;20181;-65
2024/01/14 10:58:03;;;;;;;0.70;0.70;;;;;;;-146.42;100.00;61981.06;4974301;28;20182;-65
2024/01/14 11:00:34;;;;;;;2.40;1.90;;;;;;;-146.42;100.00;61981.06;4974188;28;20185;-65
2024/01/14 11:03:03;;;;;;;1.27;1.27;;;;;;;-146.42;100.00;61981.06;4974064;28;20220;-65
2024/01/14 11:05:29;;;;;;;2.70;2.50;;;;;;;-146.42;100.00;61981.06;4974046;28;20637;-66